Time;durP1;ratioP1;P1;durP2;ratioP2;P2;SDS_P1;SDS_P2;PMS_P1;PMS_P2;Temp;Humidity;BMP_temperature;BMP_pressure;BME280_temperature;BME280_humidity;BME280_pressure;Samples;Min_cycle;Max_cycle;Signal;HPM_P1;HPM_P2
2023/12/04 00:01:15;;;;;;;43.90;18.60;;;;;;;;;;5072685;28;20195;-77
2023/12/04 00:03:45;;;;;;;39.40;16.43;;;;;;;;;;5072812;28;20230;-77
2023/12/04 00:06:12;;;;;;;38.13;18.57;;;;;;;;;;5072592;28;20199;-77
2023/12/04 00:08:40;;;;;;;73.23;23.37;;;;;;;;;;5074901;28;20648;-76
2023/12/04 00:11:08;;;;;;;50.93;18.83;;;;;;;;;;5075954;28;20192;-76
2023/12/04 00:13:35;;;;;;;57.77;19.20;;;;;;;;;;5076175;28;20662;-76
2023/12/04 00:16:03;;;;;;;64.97;23.23;;;;;;;;;;5075773;28;20257;-77
2023/12/04 00:18:30;;;;;;;39.03;15.73;;;;;;;;;;5076015;28;20298;-77
2023/12/04 00:20:57;;;;;;;43.47;16.07;;;;;;;;;;5075761;28;20199;-76
2023/12/04 00:23:24;;;;;;;36.73;16.17;;;;;;;;;;5075555;28;20223;-77
2023/12/04 00:25:53;;;;;;;36.43;15.33;;;;;;;;;;5074563;28;20257;-76
2023/12/04 00:28:20;;;;;;;80.13;27.80;;;;;;;;;;5074922;28;20196;-77
2023/12/04 00:30:47;;;;;;;63.00;20.63;;;;;;;;;;5075638;28;20210;-76
2023/12/04 00:33:14;;;;;;;52.40;17.50;;;;;;;;;;5075819;28;20202;-76
2023/12/04 00:35:41;;;;;;;46.07;16.77;;;;;;;;;;5074340;28;20203;-76
2023/12/04 00:38:08;;;;;;;44.07;20.63;;;;;;;;;;5074333;28;20769;-76
2023/12/04 00:40:36;;;;;;;73.50;20.37;;;;;;;;;;5074487;28;20207;-76
2023/12/04 00:43:02;;;;;;;67.80;19.57;;;;;;;;;;5075239;28;20204;-76
2023/12/04 00:45:30;;;;;;;46.03;18.20;;;;;;;;;;5074151;28;20207;-76
2023/12/04 00:47:57;;;;;;;48.33;17.00;;;;;;;;;;5075447;28;20651;-76
2023/12/04 00:50:24;;;;;;;47.83;17.70;;;;;;;;;;5074095;28;20194;-76
2023/12/04 00:52:51;;;;;;;39.07;14.90;;;;;;;;;;5074299;28;20192;-76
2023/12/04 00:55:19;;;;;;;50.83;17.33;;;;;;;;;;5074126;28;20221;-76
2023/12/04 00:57:46;;;;;;;26.30;13.57;;;;;;;;;;5074005;28;20226;-76
2023/12/04 01:00:14;;;;;;;35.83;16.77;;;;;;;;;;5074030;28;20199;-75
2023/12/04 01:02:41;;;;;;;51.43;17.60;;;;;;;;;;5075117;28;20236;-76
2023/12/04 01:05:08;;;;;;;52.80;17.87;;;;;;;;;;5074952;28;20196;-76
2023/12/04 01:07:35;;;;;;;79.30;22.50;;;;;;;;;;5075282;28;20539;-76
2023/12/04 01:10:03;;;;;;;63.47;24.07;;;;;;;;;;5075193;28;20508;-76
2023/12/04 01:12:31;;;;;;;45.10;17.17;;;;;;;;;;5075174;28;20209;-76
2023/12/04 01:14:58;;;;;;;42.53;17.27;;;;;;;;;;5074816;28;20195;-76
2023/12/04 01:17:25;;;;;;;52.70;18.20;;;;;;;;;;5074957;28;20302;-76
2023/12/04 01:19:53;;;;;;;32.97;14.63;;;;;;;;;;5073913;28;20195;-76
2023/12/04 01:22:19;;;;;;;53.03;20.67;;;;;;;;;;5075069;28;20191;-76
2023/12/04 01:24:47;;;;;;;41.43;15.47;;;;;;;;;;5074820;28;20227;-76
2023/12/04 01:27:14;;;;;;;56.37;20.57;;;;;;;;;;5074894;28;20207;-75
2023/12/04 01:29:41;;;;;;;37.33;15.53;;;;;;;;;;5074447;28;20580;-76
2023/12/04 01:32:08;;;;;;;38.07;18.97;;;;;;;;;;5074632;28;20232;-76
2023/12/04 01:34:35;;;;;;;39.43;15.67;;;;;;;;;;5074581;28;20221;-76
2023/12/04 01:37:02;;;;;;;42.80;16.67;;;;;;;;;;5074295;28;20548;-76
2023/12/04 01:39:29;;;;;;;38.67;15.73;;;;;;;;;;5074498;28;20199;-79
2023/12/04 01:41:56;;;;;;;63.03;21.23;;;;;;;;;;5074470;28;20200;-76
2023/12/04 01:44:24;;;;;;;54.00;19.87;;;;;;;;;;5074283;28;20537;-76
2023/12/04 01:46:51;;;;;;;48.73;18.57;;;;;;;;;;5074244;28;20211;-76
2023/12/04 01:49:19;;;;;;;56.63;18.77;;;;;;;;;;5074500;28;20200;-76
2023/12/04 01:51:46;;;;;;;48.80;17.77;;;;;;;;;;5073255;28;20206;-76
2023/12/04 01:54:14;;;;;;;53.47;23.67;;;;;;;;;;5074407;28;20203;-76
2023/12/04 01:56:41;;;;;;;74.03;20.87;;;;;;;;;;5072939;28;20187;-75
2023/12/04 01:59:08;;;;;;;53.57;20.13;;;;;;;;;;5072974;28;20664;-76
2023/12/04 02:01:36;;;;;;;42.73;17.47;;;;;;;;;;5074110;28;20214;-76
2023/12/04 02:04:04;;;;;;;68.10;27.27;;;;;;;;;;5074382;28;20241;-76
2023/12/04 02:06:31;;;;;;;51.90;18.03;;;;;;;;;;5072930;28;20249;-76
2023/12/04 02:08:59;;;;;;;36.67;16.80;;;;;;;;;;5074154;28;20652;-76
2023/12/04 02:11:26;;;;;;;68.57;21.67;;;;;;;;;;5073888;28;20199;-76
2023/12/04 02:13:53;;;;;;;50.80;19.97;;;;;;;;;;5072838;28;20195;-76
2023/12/04 02:16:24;;;;;;;56.90;22.47;;;;;;;;;;5072900;28;20598;-76
2023/12/04 02:18:51;;;;;;;48.53;19.07;;;;;;;;;;5072728;28;20223;-76
2023/12/04 02:21:18;;;;;;;76.13;22.67;;;;;;;;;;5072659;28;20252;-76
2023/12/04 02:23:50;;;;;;;40.50;17.53;;;;;;;;;;5073758;28;20658;-75
2023/12/04 02:26:22;;;;;;;48.00;21.13;;;;;;;;;;5073707;28;20203;-76
2023/12/04 02:28:54;;;;;;;41.80;18.20;;;;;;;;;;5072555;28;20210;-75
2023/12/04 02:31:21;;;;;;;55.30;19.63;;;;;;;;;;5072309;28;20199;-75
2023/12/04 02:33:52;;;;;;;46.47;18.23;;;;;;;;;;5072454;28;20211;-76
2023/12/04 02:36:20;;;;;;;57.37;24.37;;;;;;;;;;5072491;28;20203;-76
2023/12/04 02:38:47;;;;;;;57.20;19.67;;;;;;;;;;5072122;28;20284;-76
2023/12/04 02:41:16;;;;;;;43.13;18.13;;;;;;;;;;5073616;28;20708;-75
2023/12/04 02:43:44;;;;;;;62.80;22.30;;;;;;;;;;5073395;28;20199;-75
2023/12/04 02:46:11;;;;;;;68.60;21.03;;;;;;;;;;5072171;28;20200;-75
2023/12/04 02:48:38;;;;;;;44.00;19.80;;;;;;;;;;5073336;28;20187;-75
2023/12/04 02:51:06;;;;;;;77.37;22.83;;;;;;;;;;5073373;28;20199;-76
2023/12/04 02:53:33;;;;;;;46.87;19.43;;;;;;;;;;5073512;28;20207;-76
2023/12/04 02:56:00;;;;;;;50.33;19.20;;;;;;;;;;5073505;28;20656;-76
2023/12/04 02:58:27;;;;;;;48.77;24.43;;;;;;;;;;5073449;28;20215;-75
2023/12/04 03:00:54;;;;;;;63.10;21.43;;;;;;;;;;5073189;28;20687;-76
2023/12/04 03:03:21;;;;;;;43.33;18.23;;;;;;;;;;5073183;28;20203;-77
2023/12/04 03:05:48;;;;;;;46.07;18.93;;;;;;;;;;5072965;28;20206;-76
2023/12/04 03:08:16;;;;;;;69.40;25.17;;;;;;;;;;5073455;28;20191;-76
2023/12/04 03:10:43;;;;;;;49.80;20.43;;;;;;;;;;5073189;28;20204;-76
2023/12/04 03:13:10;;;;;;;42.10;18.57;;;;;;;;;;5073106;28;20198;-76
2023/12/04 03:15:37;;;;;;;57.43;20.27;;;;;;;;;;5073099;28;20214;-76
2023/12/04 03:18:04;;;;;;;64.00;22.10;;;;;;;;;;5072989;28;20215;-76
2023/12/04 03:20:33;;;;;;;56.73;22.87;;;;;;;;;;5072965;28;20196;-76
2023/12/04 03:23:01;;;;;;;68.33;25.20;;;;;;;;;;5071743;28;20195;-76
2023/12/04 03:25:28;;;;;;;55.60;21.60;;;;;;;;;;5073006;28;20202;-76
2023/12/04 03:27:55;;;;;;;60.20;24.20;;;;;;;;;;5072591;28;20199;-76
2023/12/04 03:30:22;;;;;;;57.07;21.97;;;;;;;;;;5071862;28;20545;-76
2023/12/04 03:32:49;;;;;;;56.43;21.87;;;;;;;;;;5072764;28;20195;-76
2023/12/04 03:35:16;;;;;;;51.90;21.47;;;;;;;;;;5072875;28;20274;-76
2023/12/04 03:37:43;;;;;;;62.83;23.13;;;;;;;;;;5071247;28;20219;-76
2023/12/04 03:40:11;;;;;;;70.20;24.23;;;;;;;;;;5072856;28;20221;-76
2023/12/04 03:42:38;;;;;;;55.90;22.40;;;;;;;;;;5073871;28;20206;-76
2023/12/04 03:45:06;;;;;;;63.70;22.90;;;;;;;;;;5076401;28;20204;-76
2023/12/04 03:47:33;;;;;;;52.27;20.53;;;;;;;;;;5076350;28;20195;-76
2023/12/04 03:50:00;;;;;;;47.43;19.73;;;;;;;;;;5076046;28;20207;-76
2023/12/04 03:52:28;;;;;;;93.40;37.23;;;;;;;;;;5076708;28;20195;-76
2023/12/04 03:54:56;;;;;;;45.27;19.00;;;;;;;;;;5076341;28;20278;-76
2023/12/04 03:57:23;;;;;;;55.43;21.80;;;;;;;;;;5076405;28;20674;-76
2023/12/04 03:59:50;;;;;;;53.93;20.80;;;;;;;;;;5076226;28;20223;-76
2023/12/04 04:02:17;;;;;;;82.07;38.53;;;;;;;;;;5076463;28;20636;-76
2023/12/04 04:04:44;;;;;;;63.40;24.90;;;;;;;;;;5076369;28;20286;-76
2023/12/04 04:07:12;;;;;;;55.93;22.33;;;;;;;;;;5075103;28;20668;-77
2023/12/04 04:09:39;;;;;;;61.97;23.20;;;;;;;;;;5076195;28;20584;-76
2023/12/04 04:12:06;;;;;;;69.37;23.37;;;;;;;;;;5076106;28;20206;-76
2023/12/04 04:14:33;;;;;;;87.30;29.97;;;;;;;;;;5076135;28;20207;-77
2023/12/04 04:17:00;;;;;;;76.00;25.97;;;;;;;;;;5075926;28;20199;-76
2023/12/04 04:19:27;;;;;;;72.20;26.57;;;;;;;;;;5076296;28;20230;-76
2023/12/04 04:21:55;;;;;;;60.23;23.70;;;;;;;;;;5075646;28;20195;-76
2023/12/04 04:24:22;;;;;;;68.23;36.27;;;;;;;;;;5075804;28;20318;-77
2023/12/04 04:26:49;;;;;;;65.27;23.40;;;;;;;;;;5077939;28;20198;-77
2023/12/04 04:29:16;;;;;;;62.93;23.00;;;;;;;;;;5066247;28;20648;-76
2023/12/04 04:31:43;;;;;;;53.97;22.17;;;;;;;;;;5063927;28;20196;-77
2023/12/04 04:34:10;;;;;;;48.87;21.17;;;;;;;;;;5065876;28;20644;-77
2023/12/04 04:36:38;;;;;;;55.83;21.73;;;;;;;;;;5077666;28;20255;-76
2023/12/04 04:39:06;;;;;;;51.20;20.77;;;;;;;;;;5066579;28;20223;-76
2023/12/04 04:41:33;;;;;;;52.90;21.97;;;;;;;;;;5070534;28;20202;-77
2023/12/04 04:44:00;;;;;;;43.90;19.00;;;;;;;;;;5064758;28;20203;-76
2023/12/04 04:46:28;;;;;;;52.50;25.70;;;;;;;;;;5064352;28;20201;-76
2023/12/04 04:48:55;;;;;;;51.67;20.70;;;;;;;;;;5072411;28;20219;-77
2023/12/04 04:51:23;;;;;;;86.27;26.27;;;;;;;;;;5073702;28;20199;-76
2023/12/04 04:53:51;;;;;;;53.37;21.77;;;;;;;;;;5061483;28;20546;-77
2023/12/04 04:56:18;;;;;;;60.40;30.60;;;;;;;;;;5084448;28;20592;-77
2023/12/04 04:58:45;;;;;;;70.77;23.73;;;;;;;;;;5052204;28;20596;-77
2023/12/04 05:01:19;;;;;;;71.67;24.63;;;;;;;;;;5067159;28;20715;-77
2023/12/04 05:03:46;;;;;;;73.57;23.00;;;;;;;;;;5073346;28;20235;-76
2023/12/04 05:06:14;;;;;;;66.63;24.07;;;;;;;;;;5070642;28;20224;-76
2023/12/04 05:08:41;;;;;;;54.67;22.07;;;;;;;;;;5053137;28;20266;-76
2023/12/04 05:11:08;;;;;;;89.70;28.67;;;;;;;;;;5073156;28;20784;-77
2023/12/04 05:13:35;;;;;;;67.37;22.80;;;;;;;;;;5073971;28;20235;-76
2023/12/04 05:16:03;;;;;;;107.43;30.73;;;;;;;;;;5074287;28;20672;-77
2023/12/04 05:18:29;;;;;;;57.10;27.63;;;;;;;;;;5074339;28;20649;-77
2023/12/04 05:20:57;;;;;;;51.90;21.10;;;;;;;;;;5073960;28;20623;-77
2023/12/04 05:23:24;;;;;;;45.17;19.50;;;;;;;;;;5073879;28;20245;-77
2023/12/04 05:25:51;;;;;;;37.97;17.53;;;;;;;;;;5056441;28;20219;-77
2023/12/04 05:28:18;;;;;;;55.50;24.30;;;;;;;;;;5073580;28;20250;-77
2023/12/04 05:30:46;;;;;;;48.87;19.73;;;;;;;;;;5074189;28;20228;-76
2023/12/04 05:33:12;;;;;;;48.83;20.40;;;;;;;;;;5073946;28;20314;-78
2023/12/04 05:35:40;;;;;;;50.60;19.33;;;;;;;;;;5073937;28;20215;-77
2023/12/04 05:38:08;;;;;;;39.80;18.17;;;;;;;;;;5073555;28;20239;-77
2023/12/04 05:40:35;;;;;;;56.37;24.23;;;;;;;;;;5074065;28;20287;-77
2023/12/04 05:43:02;;;;;;;43.77;20.87;;;;;;;;;;5072898;28;20227;-76
2023/12/04 05:45:30;;;;;;;52.57;25.17;;;;;;;;;;5073750;28;20231;-77
2023/12/04 05:47:57;;;;;;;42.57;19.13;;;;;;;;;;5072385;28;20227;-77
2023/12/04 05:50:24;;;;;;;45.43;20.03;;;;;;;;;;5072227;28;20603;-76
2023/12/04 05:52:51;;;;;;;48.30;20.83;;;;;;;;;;5072308;28;20223;-77
2023/12/04 05:55:20;;;;;;;49.37;20.93;;;;;;;;;;5062108;28;20227;-76
2023/12/04 05:57:47;;;;;;;56.93;21.50;;;;;;;;;;5061536;28;20258;-77
2023/12/04 06:00:15;;;;;;;53.00;21.17;;;;;;;;;;5054124;28;20305;-77
2023/12/04 06:02:43;;;;;;;45.17;19.17;;;;;;;;;;5056103;28;20222;-77
2023/12/04 06:05:10;;;;;;;48.87;19.90;;;;;;;;;;5052737;28;20244;-76
2023/12/04 06:07:38;;;;;;;40.63;18.70;;;;;;;;;;5052419;28;20216;-76
2023/12/04 06:10:06;;;;;;;45.17;19.40;;;;;;;;;;5062245;28;20246;-77
2023/12/04 06:12:33;;;;;;;44.30;19.40;;;;;;;;;;5061987;28;20215;-76
2023/12/04 06:15:00;;;;;;;41.77;17.50;;;;;;;;;;5060820;28;20227;-77
2023/12/04 06:17:27;;;;;;;42.47;18.37;;;;;;;;;;5059510;28;20203;-77
2023/12/04 06:19:55;;;;;;;47.03;19.00;;;;;;;;;;5057510;28;20238;-76
2023/12/04 06:22:22;;;;;;;77.47;32.50;;;;;;;;;;5056684;28;20227;-77
2023/12/04 06:24:50;;;;;;;45.80;18.43;;;;;;;;;;5059957;28;20315;-77
2023/12/04 06:27:20;;;;;;;43.67;18.53;;;;;;;;;;5058138;28;20188;-76
2023/12/04 06:29:48;;;;;;;41.13;18.20;;;;;;;;;;5064046;28;20192;-77
2023/12/04 06:32:19;;;;;;;47.83;19.83;;;;;;;;;;5052464;28;20200;-77
2023/12/04 06:34:47;;;;;;;55.50;22.57;;;;;;;;;;5053558;28;20206;-76
2023/12/04 06:37:15;;;;;;;75.70;26.93;;;;;;;;;;5053262;28;20286;-76
2023/12/04 06:39:45;;;;;;;73.67;25.97;;;;;;;;;;5052389;28;20223;-77
2023/12/04 06:42:12;;;;;;;65.17;23.50;;;;;;;;;;5053385;28;20195;-77
2023/12/04 06:44:39;;;;;;;70.00;29.37;;;;;;;;;;5052246;28;20270;-77
2023/12/04 06:47:08;;;;;;;63.23;23.13;;;;;;;;;;5053577;28;20196;-76
2023/12/04 06:49:36;;;;;;;70.97;25.43;;;;;;;;;;5052176;28;20218;-76
2023/12/04 06:52:03;;;;;;;67.03;23.57;;;;;;;;;;5057768;28;20192;-76
2023/12/04 06:54:30;;;;;;;127.90;60.80;;;;;;;;;;5073423;28;20649;-77
2023/12/04 06:56:58;;;;;;;98.53;29.90;;;;;;;;;;5067093;28;20204;-77
2023/12/04 06:59:25;;;;;;;67.57;22.90;;;;;;;;;;5053288;28;20212;-77
2023/12/04 07:01:52;;;;;;;67.80;23.70;;;;;;;;;;5053000;28;20207;-76
2023/12/04 07:04:21;;;;;;;67.07;24.40;;;;;;;;;;5053230;28;20204;-76
2023/12/04 07:06:49;;;;;;;65.33;27.60;;;;;;;;;;5053064;28;20209;-77
2023/12/04 07:09:20;;;;;;;58.83;21.13;;;;;;;;;;5053248;28;20257;-77
2023/12/04 07:11:47;;;;;;;52.13;20.47;;;;;;;;;;5051827;28;20200;-77
2023/12/04 07:14:14;;;;;;;69.13;24.53;;;;;;;;;;5053262;28;20196;-77
2023/12/04 07:16:42;;;;;;;64.27;29.60;;;;;;;;;;5053771;28;20227;-76
2023/12/04 07:19:10;;;;;;;73.17;24.67;;;;;;;;;;5071078;28;20218;-77
2023/12/04 07:21:38;;;;;;;55.10;22.23;;;;;;;;;;5059332;28;20199;-77
2023/12/04 07:24:06;;;;;;;85.37;28.33;;;;;;;;;;5076106;28;20223;-76
2023/12/04 07:26:34;;;;;;;67.03;25.43;;;;;;;;;;5077125;28;20191;-77
2023/12/04 07:29:02;;;;;;;64.93;24.33;;;;;;;;;;5059522;28;21139;-77
2023/12/04 07:31:29;;;;;;;66.07;23.00;;;;;;;;;;5077074;28;20191;-77
2023/12/04 07:33:57;;;;;;;54.73;21.87;;;;;;;;;;5077047;28;20206;-77
2023/12/04 07:36:24;;;;;;;42.60;20.47;;;;;;;;;;5077148;28;20199;-77
2023/12/04 07:38:53;;;;;;;47.60;21.53;;;;;;;;;;5061674;28;20192;-77
2023/12/04 07:41:21;;;;;;;77.70;26.30;;;;;;;;;;5055674;28;20649;-77
2023/12/04 07:43:49;;;;;;;50.83;21.27;;;;;;;;;;5039442;28;20196;-77
2023/12/04 07:46:16;;;;;;;47.50;21.37;;;;;;;;;;5055724;28;20282;-77
2023/12/04 07:48:43;;;;;;;53.67;24.77;;;;;;;;;;5056573;28;20580;-77
2023/12/04 07:51:11;;;;;;;52.97;20.07;;;;;;;;;;5070878;28;20195;-77
2023/12/04 07:53:38;;;;;;;49.10;19.33;;;;;;;;;;5075272;28;20210;-77
2023/12/04 07:56:06;;;;;;;45.20;19.63;;;;;;;;;;5065338;28;20555;-77
2023/12/04 07:58:33;;;;;;;57.83;21.17;;;;;;;;;;5056441;28;20246;-77
2023/12/04 08:01:00;;;;;;;39.23;18.93;;;;;;;;;;5056124;28;20219;-77
2023/12/04 08:03:28;;;;;;;47.30;19.63;;;;;;;;;;5056341;28;20199;-77
2023/12/04 08:05:55;;;;;;;44.53;17.73;;;;;;;;;;5071163;28;20210;-77
2023/12/04 08:08:23;;;;;;;46.27;18.40;;;;;;;;;;5076499;28;20203;-77
2023/12/04 08:10:50;;;;;;;48.97;22.90;;;;;;;;;;5076186;28;20226;-77
2023/12/04 08:13:17;;;;;;;41.87;17.90;;;;;;;;;;5075188;28;20249;-77
2023/12/04 08:15:44;;;;;;;43.63;18.70;;;;;;;;;;5075965;28;20207;-77
2023/12/04 08:18:12;;;;;;;38.30;15.50;;;;;;;;;;5076011;28;20207;-77
2023/12/04 08:20:39;;;;;;;38.40;21.03;;;;;;;;;;5060328;28;20302;-77
2023/12/04 08:23:08;;;;;;;37.13;16.77;;;;;;;;;;5058596;28;20246;-77
2023/12/04 08:25:38;;;;;;;35.93;17.23;;;;;;;;;;5064239;28;20683;-77
2023/12/04 08:28:08;;;;;;;43.60;19.23;;;;;;;;;;5054319;28;20188;-77
2023/12/04 08:30:36;;;;;;;42.93;18.40;;;;;;;;;;5053475;28;20222;-77
2023/12/04 08:33:03;;;;;;;54.33;23.53;;;;;;;;;;5072265;28;20546;-77
2023/12/04 08:35:31;;;;;;;62.37;22.23;;;;;;;;;;5074883;28;20231;-77
2023/12/04 08:37:58;;;;;;;51.13;20.27;;;;;;;;;;5062692;28;20546;-77
2023/12/04 08:40:25;;;;;;;69.13;23.40;;;;;;;;;;5074797;28;20207;-76
2023/12/04 08:42:53;;;;;;;56.20;29.53;;;;;;;;;;5074209;28;20199;-77
2023/12/04 08:45:20;;;;;;;55.47;22.73;;;;;;;;;;5073300;28;20199;-77
2023/12/04 08:47:48;;;;;;;50.53;20.53;;;;;;;;;;5074142;28;20202;-77
2023/12/04 08:50:16;;;;;;;47.67;20.60;;;;;;;;;;5074672;28;20195;-76
2023/12/04 08:52:44;;;;;;;61.47;24.50;;;;;;;;;;5074237;28;20195;-76
2023/12/04 08:55:11;;;;;;;55.60;21.87;;;;;;;;;;5074211;28;20214;-77
2023/12/04 08:57:39;;;;;;;56.20;22.63;;;;;;;;;;5072467;28;20674;-77
2023/12/04 09:00:08;;;;;;;60.70;23.13;;;;;;;;;;5074237;28;20282;-76
2023/12/04 09:02:36;;;;;;;65.93;23.30;;;;;;;;;;5064907;28;20192;-77
2023/12/04 09:05:12;;;;;;;62.57;26.13;;;;;;;;;;5054128;28;20218;-77
2023/12/04 09:07:40;;;;;;;49.00;19.73;;;;;;;;;;5052600;28;20261;-77
2023/12/04 09:10:27;;;;;;;70.27;24.83;;;;;;;;;;5054057;28;20215;-76
2023/12/04 09:13:14;;;;;;;46.87;20.10;;;;;;;;;;5053981;28;20196;-77
2023/12/04 09:15:41;;;;;;;45.57;22.43;;;;;;;;;;5072589;28;20191;-76
2023/12/04 09:18:09;;;;;;;49.47;20.67;;;;;;;;;;5073795;28;20203;-77
2023/12/04 09:20:36;;;;;;;62.50;22.10;;;;;;;;;;5073966;28;20215;-77
2023/12/04 09:23:04;;;;;;;47.30;18.35;;;;;;;;;;5051652;28;1310423;-76
2023/12/04 09:25:36;;;;;;;35.50;19.50;;;;;;;;;;5075058;28;20265;-76
2023/12/04 09:28:04;;;;;;;33.60;17.20;;;;;;;;;;5073359;28;20210;-77
2023/12/04 09:30:31;;;;;;;35.10;16.33;;;;;;;;;;5054810;28;20200;-77
2023/12/04 09:32:58;;;;;;;37.47;17.03;;;;;;;;;;5072901;28;20202;-77
2023/12/04 09:35:25;;;;;;;30.00;15.10;;;;;;;;;;5069639;28;20188;-76
2023/12/04 09:37:52;;;;;;;31.77;16.93;;;;;;;;;;5061414;28;20188;-77
2023/12/04 09:40:19;;;;;;;30.23;15.60;;;;;;;;;;5062406;28;20211;-77
2023/12/04 09:42:47;;;;;;;46.60;18.93;;;;;;;;;;5065317;28;20192;-76
2023/12/04 09:45:14;;;;;;;36.97;15.83;;;;;;;;;;5062999;28;20195;-77
2023/12/04 09:47:42;;;;;;;38.97;18.67;;;;;;;;;;5062783;28;20538;-76
2023/12/04 09:50:10;;;;;;;46.93;18.97;;;;;;;;;;5053095;28;20203;-77
2023/12/04 09:52:38;;;;;;;41.23;18.60;;;;;;;;;;5057452;28;20195;-77
2023/12/04 09:55:05;;;;;;;32.53;16.23;;;;;;;;;;5060472;28;20192;-77
2023/12/04 09:57:33;;;;;;;31.97;16.93;;;;;;;;;;5063423;28;20202;-76
2023/12/04 10:00:02;;;;;;;37.23;16.13;;;;;;;;;;5055491;28;20235;-76
2023/12/04 10:02:37;;;;;;;29.40;15.50;;;;;;;;;;5052504;28;20196;-77
2023/12/04 10:05:06;;;;;;;36.50;17.27;;;;;;;;;;5035688;28;20253;-76
2023/12/04 10:07:33;;;;;;;35.03;17.53;;;;;;;;;;5051266;28;20719;-77
2023/12/04 10:10:05;;;;;;;38.17;19.40;;;;;;;;;;5052531;28;20206;-77
2023/12/04 10:12:35;;;;;;;48.53;19.63;;;;;;;;;;5035406;28;20211;-77
2023/12/04 10:15:08;;;;;;;46.57;18.67;;;;;;;;;;5053409;28;20230;-77
2023/12/04 10:17:40;;;;;;;38.00;17.57;;;;;;;;;;5052243;28;20227;-76
2023/12/04 10:20:12;;;;;;;44.63;21.27;;;;;;;;;;5051973;28;20307;-76
2023/12/04 10:22:43;;;;;;;45.80;19.20;;;;;;;;;;5036059;28;20266;-77
2023/12/04 10:25:17;;;;;;;75.33;28.07;;;;;;;;;;5035998;28;20238;-77
2023/12/04 10:27:46;;;;;;;47.50;21.83;;;;;;;;;;5052441;28;20257;-76
2023/12/04 10:30:30;;;;;;;51.60;24.50;;;;;;;;;;5053855;28;20195;-76
2023/12/04 10:33:00;;;;;;;50.90;20.43;;;;;;;;;;5053692;28;20200;-77
2023/12/04 10:35:32;;;;;;;63.90;23.50;;;;;;;;;;5052476;28;20199;-76
2023/12/04 10:37:59;;;;;;;70.47;24.20;;;;;;;;;;5052229;28;20204;-77
2023/12/04 10:40:28;;;;;;;94.27;33.00;;;;;;;;;;5052494;28;20219;-76
2023/12/04 10:43:11;;;;;;;54.17;22.83;;;;;;;;;;5053335;28;20196;-77
2023/12/04 10:45:40;;;;;;;68.47;23.77;;;;;;;;;;5052451;28;20203;-77
2023/12/04 10:48:08;;;;;;;57.73;23.27;;;;;;;;;;5052170;28;20200;-77
2023/12/04 10:50:40;;;;;;;54.87;22.20;;;;;;;;;;5053157;28;20200;-77
2023/12/04 10:53:09;;;;;;;46.40;20.30;;;;;;;;;;5053403;28;20195;-77
2023/12/04 10:55:36;;;;;;;52.90;19.43;;;;;;;;;;5035843;28;20203;-77
2023/12/04 10:58:09;;;;;;;50.90;19.23;;;;;;;;;;5053134;28;20246;-77
2023/12/04 11:00:41;;;;;;;47.83;19.20;;;;;;;;;;5052129;28;20224;-77
2023/12/04 11:03:13;;;;;;;54.50;23.23;;;;;;;;;;5051757;28;20196;-77
2023/12/04 11:05:41;;;;;;;39.33;16.33;;;;;;;;;;5052198;28;20307;-77
2023/12/04 11:08:15;;;;;;;44.30;17.23;;;;;;;;;;5052001;28;20202;-77
2023/12/04 11:10:49;;;;;;;46.07;18.00;;;;;;;;;;5035922;28;20279;-77
2023/12/04 11:13:31;;;;;;;37.67;18.47;;;;;;;;;;5051757;28;20203;-77
2023/12/04 11:16:07;;;;;;;40.13;16.43;;;;;;;;;;5051946;28;20192;-77
2023/12/04 11:18:39;;;;;;;43.60;16.03;;;;;;;;;;5053052;28;20191;-77
2023/12/04 11:21:09;;;;;;;25.40;11.80;;;;;;;;;;5051734;28;20242;-77
2023/12/04 11:23:37;;;;;;;31.97;14.30;;;;;;;;;;5051644;28;20747;-77
2023/12/04 11:26:05;;;;;;;35.23;15.60;;;;;;;;;;5036497;28;20597;-76
2023/12/04 11:28:33;;;;;;;41.23;17.07;;;;;;;;;;5060394;28;20197;-77
2023/12/04 11:31:01;;;;;;;35.83;15.20;;;;;;;;;;5060315;28;20250;-77
2023/12/04 11:33:28;;;;;;;34.37;16.17;;;;;;;;;;5046701;28;20200;-77
2023/12/04 11:36:07;;;;;;;27.80;14.73;;;;;;;;;;5061466;28;20231;-77
2023/12/04 11:38:44;;;;;;;48.73;17.90;;;;;;;;;;5060002;28;20199;-77
2023/12/04 11:41:16;;;;;;;38.23;17.33;;;;;;;;;;5062224;28;20243;-77
2023/12/04 11:43:47;;;;;;;28.77;13.13;;;;;;;;;;5060734;28;20257;-77
2023/12/04 11:46:23;;;;;;;37.27;18.20;;;;;;;;;;5063164;28;20232;-77
2023/12/04 11:48:54;;;;;;;37.87;16.20;;;;;;;;;;5062788;28;20261;-77
2023/12/04 11:51:42;;;;;;;36.73;14.90;;;;;;;;;;5061553;28;20196;-77
2023/12/04 11:54:10;;;;;;;39.40;18.23;;;;;;;;;;5062592;28;20538;-77
2023/12/04 11:56:37;;;;;;;34.47;16.63;;;;;;;;;;5063877;28;20552;-77
2023/12/04 11:59:05;;;;;;;31.73;15.60;;;;;;;;;;5061780;28;20192;-77
2023/12/04 12:01:34;;;;;;;37.97;15.40;;;;;;;;;;5061284;28;20222;-77
2023/12/04 12:04:04;;;;;;;28.47;13.47;;;;;;;;;;5064360;28;20198;-77
2023/12/04 12:06:32;;;;;;;28.23;13.93;;;;;;;;;;5063864;28;20583;-77
2023/12/04 12:08:59;;;;;;;34.87;13.73;;;;;;;;;;5067164;28;20199;-76
2023/12/04 12:11:26;;;;;;;28.00;13.33;;;;;;;;;;5065681;28;20290;-77
2023/12/04 12:13:54;;;;;;;30.97;13.60;;;;;;;;;;5073796;28;20532;-76
2023/12/04 12:16:20;;;;;;;45.70;17.23;;;;;;;;;;5058160;28;20275;-77
2023/12/04 12:18:49;;;;;;;36.43;16.43;;;;;;;;;;5057144;28;20195;-76
2023/12/04 12:21:16;;;;;;;53.33;18.93;;;;;;;;;;5076054;28;20211;-77
2023/12/04 12:23:43;;;;;;;42.47;17.07;;;;;;;;;;5075664;28;20227;-77
2023/12/04 12:26:11;;;;;;;38.07;17.10;;;;;;;;;;5076068;28;20199;-76
2023/12/04 12:28:38;;;;;;;45.30;21.70;;;;;;;;;;5067118;28;20195;-77
2023/12/04 12:31:06;;;;;;;44.13;17.50;;;;;;;;;;5054680;28;20204;-76
2023/12/04 12:33:33;;;;;;;70.10;23.17;;;;;;;;;;5056121;28;20204;-77
2023/12/04 12:36:03;;;;;;;44.93;18.80;;;;;;;;;;5055803;28;20282;-77
2023/12/04 12:38:35;;;;;;;51.67;19.87;;;;;;;;;;5055705;28;20188;-77
2023/12/04 12:41:11;;;;;;;41.33;18.37;;;;;;;;;;5054673;28;20274;-77
2023/12/04 12:43:39;;;;;;;48.33;18.40;;;;;;;;;;5038095;28;20586;-77
2023/12/04 12:46:06;;;;;;;42.23;16.83;;;;;;;;;;5055698;28;20196;-77
2023/12/04 12:48:33;;;;;;;38.53;16.13;;;;;;;;;;5055432;28;20200;-77
2023/12/04 12:51:05;;;;;;;32.53;14.63;;;;;;;;;;5055739;28;20288;-77
2023/12/04 12:53:33;;;;;;;42.33;16.80;;;;;;;;;;5038376;28;20203;-77
2023/12/04 12:56:01;;;;;;;53.33;19.00;;;;;;;;;;5054544;28;20278;-77
2023/12/04 12:58:28;;;;;;;35.40;15.53;;;;;;;;;;5054554;28;20249;-77
2023/12/04 13:00:56;;;;;;;36.60;16.17;;;;;;;;;;5055545;28;20227;-77
2023/12/04 13:03:23;;;;;;;44.63;17.90;;;;;;;;;;5054082;28;20223;-77
2023/12/04 13:05:51;;;;;;;43.53;17.13;;;;;;;;;;5054309;28;20655;-77
2023/12/04 13:08:18;;;;;;;36.67;14.60;;;;;;;;;;5055201;28;20204;-77
2023/12/04 13:10:45;;;;;;;42.47;18.23;;;;;;;;;;5073859;28;20203;-76
2023/12/04 13:13:16;;;;;;;31.60;15.53;;;;;;;;;;5073945;28;20199;-76
2023/12/04 13:15:43;;;;;;;48.67;17.00;;;;;;;;;;5074201;28;20195;-77
2023/12/04 13:18:10;;;;;;;37.80;16.13;;;;;;;;;;5074907;28;20207;-77
2023/12/04 13:20:37;;;;;;;54.57;20.30;;;;;;;;;;5067545;28;20601;-77
2023/12/04 13:23:05;;;;;;;35.47;16.77;;;;;;;;;;5054827;28;20200;-76
2023/12/04 13:25:33;;;;;;;44.83;18.07;;;;;;;;;;5054918;28;20192;-77
2023/12/04 13:28:01;;;;;;;60.43;21.10;;;;;;;;;;5037466;28;20242;-77
2023/12/04 13:30:28;;;;;;;56.90;23.10;;;;;;;;;;5053585;28;20230;-76
2023/12/04 13:32:55;;;;;;;49.50;22.90;;;;;;;;;;5053404;28;20192;-76
2023/12/04 13:35:22;;;;;;;59.03;23.20;;;;;;;;;;5066434;28;20268;-77
2023/12/04 13:37:55;;;;;;;61.03;21.73;;;;;;;;;;5057834;28;20204;-77
2023/12/04 13:40:25;;;;;;;49.47;20.10;;;;;;;;;;5069413;28;20201;-77
2023/12/04 13:45:39;;;;;;;50.17;19.53;;;;;;;;;;5063024;28;20614;-77
2023/12/04 13:48:06;;;;;;;58.23;22.33;;;;;;;;;;5065338;28;20235;-77
2023/12/04 13:50:33;;;;;;;61.60;21.17;;;;;;;;;;5064712;28;20230;-76
2023/12/04 13:53:01;;;;;;;58.00;20.90;;;;;;;;;;5066486;28;20215;-77
2023/12/04 13:56:25;;;;;;;51.43;24.13;;;;;;;;;;5064816;28;20314;-77
2023/12/04 14:01:12;;;;;;;58.70;21.50;;;;;;;;;;5061179;28;20714;-76
2023/12/04 14:03:42;;;;;;;71.30;24.13;;;;;;;;;;5063656;28;20247;-76
2023/12/04 14:06:10;;;;;;;60.20;27.43;;;;;;;;;;5069325;28;20276;-77
2023/12/04 14:08:38;;;;;;;64.77;25.17;;;;;;;;;;5070012;28;20231;-77
2023/12/04 14:11:05;;;;;;;61.53;22.63;;;;;;;;;;5061370;28;20223;-77
2023/12/04 14:13:33;;;;;;;53.43;21.03;;;;;;;;;;5062062;28;20227;-77
2023/12/04 14:16:01;;;;;;;92.07;32.23;;;;;;;;;;5063938;28;20207;-76
2023/12/04 14:18:30;;;;;;;56.73;22.20;;;;;;;;;;5062144;28;20211;-77
2023/12/04 14:20:57;;;;;;;51.93;22.83;;;;;;;;;;5063458;28;20758;-76
2023/12/04 14:23:24;;;;;;;86.43;28.13;;;;;;;;;;5060663;28;20243;-77
2023/12/04 14:25:52;;;;;;;73.87;28.07;;;;;;;;;;5061888;28;20211;-77
2023/12/04 14:28:20;;;;;;;75.50;31.03;;;;;;;;;;5063112;28;20215;-77